Terminal Aerodrome Forecast
Issued by NWS St Louis, MO

Home | Current Version | Previous Version | Text Only | Print | Product List | Glossary On
Versions: 1 2 3 4 5 6 7 8 9 10 11 12 13 14 15 16 17 18 19 20 21 22 23
788
FTUS43 KLSX 260320 AAA
TAFCOU
TAF AMD
KCOU 260320Z 2603/2624 23008KT P6SM OVC010
      TEMPO 2603/2606 5SM -SHRA BR OVC007
     FM260600 23007KT 5SM BR OVC007
     FM261700 24008KT P6SM BKN020=

USA.gov is the U.S. government's official web portal to all federal, state and local government web resources and services.